createdAt,value
2018-04-10T00:01:19.703Z,9.70
2018-04-10T00:04:22.851Z,9.60
2018-04-10T00:07:26.044Z,9.60
2018-04-10T00:10:30.052Z,9.60
2018-04-10T00:13:33.260Z,9.60
2018-04-10T00:16:36.437Z,9.60
2018-04-10T00:19:39.644Z,9.60
2018-04-10T00:22:42.805Z,9.60
2018-04-10T00:25:46.749Z,9.40
2018-04-10T00:28:49.931Z,9.40
2018-04-10T00:31:53.868Z,9.30
2018-04-10T00:34:57.043Z,9.30
2018-04-10T00:38:00.225Z,9.30
2018-04-10T00:41:03.894Z,9.30
2018-04-10T00:44:07.067Z,9.30
2018-04-10T00:47:10.223Z,9.20
2018-04-10T00:50:13.426Z,9.20
2018-04-10T00:53:28.580Z,9.20
2018-04-10T00:56:32.503Z,9.00
2018-04-10T00:59:35.703Z,9.00
2018-04-10T01:02:38.899Z,9.00
2018-04-10T01:05:42.088Z,9.00
2018-04-10T01:08:45.317Z,9.00
2018-04-10T01:11:48.457Z,8.90
2018-04-10T01:14:51.662Z,8.90
2018-04-10T01:17:54.875Z,8.80
2018-04-10T01:20:58.092Z,8.80
2018-04-10T01:24:01.271Z,8.70
2018-04-10T01:27:04.456Z,8.70
2018-04-10T01:30:07.657Z,8.60
2018-04-10T01:33:11.136Z,8.60
2018-04-10T01:36:15.078Z,8.60
2018-04-10T01:39:18.656Z,8.50
2018-04-10T01:42:22.594Z,8.40
2018-04-10T01:45:25.802Z,8.40
2018-04-10T01:48:28.955Z,8.40
2018-04-10T01:51:32.182Z,8.30
2018-04-10T01:54:35.353Z,8.20
2018-04-10T01:57:38.556Z,8.10
2018-04-10T02:00:41.721Z,8.20
2018-04-10T02:03:46.858Z,8.10
2018-04-10T02:06:50.034Z,8.10
2018-04-10T02:10:11.712Z,8.00
2018-04-10T02:13:14.888Z,8.00
2018-04-10T02:16:18.427Z,8.00
2018-04-10T02:19:21.624Z,8.00
2018-04-10T02:22:24.784Z,8.00
2018-04-10T02:25:33.747Z,7.90
2018-04-10T02:28:42.730Z,7.90
2018-04-10T02:31:46.680Z,7.80
2018-04-10T02:34:55.409Z,7.80
2018-04-10T02:37:58.585Z,7.80
2018-04-10T02:41:07.545Z,7.80
2018-04-10T02:44:10.730Z,7.70
2018-04-10T02:47:13.895Z,7.70
2018-04-10T02:50:17.062Z,7.80
2018-04-10T02:53:20.268Z,7.80
2018-04-10T02:56:23.439Z,7.70
2018-04-10T02:59:27.812Z,7.70
2018-04-10T03:02:31.021Z,7.60
2018-04-10T03:05:34.538Z,7.60
2018-04-10T03:08:37.721Z,7.60
2018-04-10T03:11:40.886Z,7.60
2018-04-10T03:14:44.473Z,7.50
2018-04-10T03:17:47.711Z,7.50
2018-04-10T03:20:51.828Z,7.50
2018-04-10T03:23:55.015Z,7.40
2018-04-10T03:26:58.182Z,7.40
2018-04-10T03:30:02.637Z,7.40
2018-04-10T03:33:05.791Z,7.40
2018-04-10T03:36:08.970Z,7.30
2018-04-10T03:39:12.913Z,7.30
2018-04-10T03:42:16.131Z,7.30
2018-04-10T03:45:19.301Z,7.20
2018-04-10T03:48:22.475Z,7.10
2018-04-10T03:51:26.415Z,7.10
2018-04-10T03:54:29.631Z,7.10
2018-04-10T03:57:32.772Z,7.00
2018-04-10T04:00:36.891Z,7.00
2018-04-10T04:03:40.129Z,7.00
2018-04-10T04:06:43.452Z,7.00
2018-04-10T04:09:46.632Z,6.90
2018-04-10T04:12:49.816Z,7.00
2018-04-10T04:15:52.975Z,7.00
2018-04-10T04:19:08.660Z,6.90
2018-04-10T04:22:23.709Z,6.90
2018-04-10T04:25:27.659Z,6.90
2018-04-10T04:28:30.815Z,6.90
2018-04-10T04:31:35.129Z,6.90
2018-04-10T04:34:38.382Z,6.80
2018-04-10T04:37:41.595Z,6.90
2018-04-10T04:40:44.768Z,6.90
2018-04-10T04:43:47.975Z,6.90
2018-04-10T04:46:51.147Z,6.90
2018-04-10T04:49:54.298Z,6.90
2018-04-10T04:52:58.031Z,6.90
2018-04-10T04:56:01.940Z,7.00
2018-04-10T04:59:05.098Z,7.00
2018-04-10T05:02:09.081Z,7.10
2018-04-10T05:05:12.249Z,7.10
2018-04-10T05:08:15.433Z,7.10
2018-04-10T05:11:18.648Z,7.20
2018-04-10T05:14:21.796Z,7.30
2018-04-10T05:17:24.967Z,7.40
2018-04-10T05:20:28.160Z,7.40
2018-04-10T05:23:31.348Z,7.60
2018-04-10T05:26:35.560Z,7.70
2018-04-10T05:29:38.749Z,7.90
2018-04-10T05:32:41.923Z,8.20
2018-04-10T05:35:45.146Z,8.30
2018-04-10T05:38:48.305Z,8.40
2018-04-10T05:41:52.088Z,8.40
2018-04-10T05:44:55.250Z,8.50
2018-04-10T05:47:58.438Z,8.50
2018-04-10T05:51:01.623Z,8.70
2018-04-10T05:54:04.795Z,8.80
2018-04-10T05:57:07.955Z,8.90
2018-04-10T06:00:12.844Z,9.00
2018-04-10T06:03:16.009Z,9.00
2018-04-10T06:06:19.204Z,9.00
2018-04-10T06:09:22.383Z,9.20
2018-04-10T06:12:25.620Z,9.30
2018-04-10T06:15:28.756Z,9.40
2018-04-10T06:18:32.704Z,10.00
2018-04-10T06:21:35.974Z,10.00
2018-04-10T06:24:39.911Z,10.40
2018-04-10T06:27:43.128Z,10.30
2018-04-10T06:30:46.352Z,10.60
2018-04-10T06:33:49.520Z,10.70
2018-04-10T06:36:52.715Z,11.50
2018-04-10T06:39:55.940Z,13.30
2018-04-10T06:42:59.112Z,15.70
2018-04-10T06:46:03.135Z,17.30
2018-04-10T06:49:06.314Z,18.00
2018-04-10T06:52:09.480Z,18.40
2018-04-10T06:55:12.658Z,18.40
2018-04-10T06:58:15.886Z,18.60
2018-04-10T07:01:19.084Z,19.00
2018-04-10T07:04:22.302Z,19.20
2018-04-10T07:07:25.492Z,19.60
2018-04-10T07:10:28.674Z,21.40
2018-04-10T07:13:31.864Z,21.70
2018-04-10T07:16:35.164Z,22.80
2018-04-10T07:19:38.394Z,22.80
2018-04-10T07:22:42.352Z,23.50
2018-04-10T07:25:45.534Z,23.50
2018-04-10T07:28:48.728Z,24.10
2018-04-10T07:31:51.970Z,23.00
2018-04-10T07:34:55.165Z,23.30
2018-04-10T07:37:58.323Z,23.10
2018-04-10T07:41:01.513Z,22.80
2018-04-10T07:44:04.678Z,22.90
2018-04-10T07:47:07.851Z,22.70
2018-04-10T07:50:11.295Z,23.50
2018-04-10T07:53:14.515Z,23.50
2018-04-10T07:56:17.673Z,23.20
2018-04-10T07:59:20.848Z,23.10
2018-04-10T08:02:24.038Z,22.80
2018-04-10T08:05:27.189Z,23.00
2018-04-10T08:08:30.386Z,23.50
2018-04-10T08:11:33.582Z,24.20
2018-04-10T08:14:36.795Z,23.80
2018-04-10T08:17:39.979Z,23.30
2018-04-10T08:20:43.159Z,23.70
2018-04-10T08:23:46.555Z,24.80
2018-04-10T08:26:49.694Z,25.80
2018-04-10T08:29:52.933Z,25.60
2018-04-10T08:32:56.091Z,25.70
2018-04-10T08:35:59.267Z,27.10
2018-04-10T08:39:03.357Z,26.50
2018-04-10T08:42:06.590Z,26.90
2018-04-10T08:45:09.744Z,26.20
2018-04-10T08:48:12.938Z,25.40
2018-04-10T08:51:16.110Z,25.20
2018-04-10T08:54:19.355Z,24.40
2018-04-10T08:57:24.162Z,26.00
2018-04-10T09:00:27.343Z,26.00
2018-04-10T09:03:30.505Z,26.30
2018-04-10T09:06:33.688Z,26.10
2018-04-10T09:09:37.644Z,26.70
2018-04-10T09:12:41.528Z,26.70
2018-04-10T09:15:44.689Z,27.20
2018-04-10T09:18:48.659Z,25.10
2018-04-10T09:21:51.839Z,25.10
2018-04-10T09:24:55.761Z,24.40
2018-04-10T09:27:59.785Z,24.30
2018-04-10T09:31:03.875Z,24.20
2018-04-10T09:34:07.036Z,23.90
2018-04-10T09:37:11.016Z,23.60
2018-04-10T09:40:14.707Z,23.60
2018-04-10T09:43:17.929Z,23.30
2018-04-10T09:46:21.092Z,23.80
2018-04-10T09:49:24.261Z,24.80
2018-04-10T09:52:28.166Z,25.40
2018-04-10T09:55:32.729Z,24.60
2018-04-10T09:58:36.096Z,24.50
2018-04-10T10:01:40.017Z,24.00
2018-04-10T10:04:43.204Z,24.00
2018-04-10T10:07:46.432Z,24.00
2018-04-10T10:10:49.624Z,23.80
2018-04-10T10:13:52.800Z,23.50
2018-04-10T10:16:55.965Z,23.10
2018-04-10T10:19:59.215Z,23.30
2018-04-10T10:23:02.375Z,23.50
2018-04-10T10:26:05.558Z,23.70
2018-04-10T10:29:08.793Z,23.60
2018-04-10T10:32:11.960Z,24.00
2018-04-10T10:35:15.121Z,24.00
2018-04-10T10:38:18.299Z,23.80
2018-04-10T10:41:21.475Z,23.80
2018-04-10T10:44:25.450Z,24.40
2018-04-10T10:47:28.632Z,24.40
2018-04-10T10:50:31.860Z,24.40
2018-04-10T10:53:35.117Z,24.10
2018-04-10T10:56:38.304Z,24.50
2018-04-10T10:59:42.811Z,24.10
2018-04-10T11:02:46.017Z,24.10
2018-04-10T11:05:49.181Z,23.70
2018-04-10T11:08:52.373Z,23.80
2018-04-10T11:11:55.553Z,24.10
2018-04-10T11:14:58.751Z,24.20
2018-04-10T11:18:01.919Z,24.50
2018-04-10T11:21:05.116Z,24.10
2018-04-10T11:24:08.270Z,23.70
2018-04-10T11:27:11.529Z,24.20
2018-04-10T11:30:14.698Z,24.50
2018-04-10T11:33:18.857Z,24.80
2018-04-10T11:36:22.007Z,25.00
2018-04-10T11:39:25.220Z,24.90
2018-04-10T11:42:28.370Z,24.30
2018-04-10T11:45:32.336Z,23.60
2018-04-10T11:48:35.571Z,23.60
2018-04-10T11:51:39.522Z,22.20
2018-04-10T11:54:43.379Z,22.10
2018-04-10T11:57:46.643Z,21.60
2018-04-10T12:00:49.805Z,21.60
2018-04-10T12:03:53.779Z,21.40
2018-04-10T12:06:56.982Z,21.40
2018-04-10T12:10:00.149Z,21.50
2018-04-10T12:13:03.298Z,21.30
2018-04-10T12:16:07.300Z,21.20
2018-04-10T12:19:11.225Z,21.30
2018-04-10T12:22:15.183Z,21.50
2018-04-10T12:25:18.369Z,21.50
2018-04-10T12:28:21.558Z,21.50
2018-04-10T12:31:24.729Z,21.20
2018-04-10T12:34:28.773Z,21.20
2018-04-10T12:37:31.967Z,21.30
2018-04-10T12:40:35.217Z,21.20
2018-04-10T12:43:38.406Z,21.20
2018-04-10T12:46:41.613Z,21.20
2018-04-10T12:49:44.802Z,21.20
2018-04-10T12:52:47.988Z,21.20
2018-04-10T12:55:51.911Z,21.20
2018-04-10T12:58:55.132Z,21.10
2018-04-10T13:01:58.285Z,21.30
2018-04-10T13:05:02.723Z,21.30
2018-04-10T13:08:05.893Z,21.30
2018-04-10T13:11:09.110Z,21.40
2018-04-10T13:14:12.290Z,21.40
2018-04-10T13:17:15.506Z,21.30
2018-04-10T13:20:18.672Z,21.40
2018-04-10T13:23:21.850Z,21.40
2018-04-10T13:26:25.080Z,21.40
2018-04-10T13:29:29.124Z,21.40
2018-04-10T13:32:32.325Z,21.30
2018-04-10T13:35:35.822Z,21.40
2018-04-10T13:38:38.969Z,21.30
2018-04-10T13:41:42.916Z,21.40
2018-04-10T13:44:46.118Z,21.30
2018-04-10T13:47:49.393Z,21.50
2018-04-10T13:50:52.575Z,21.60
2018-04-10T13:53:55.811Z,21.50
2018-04-10T13:56:58.963Z,21.60
2018-04-10T14:00:02.175Z,21.50
2018-04-10T14:03:05.323Z,21.70
2018-04-10T14:06:08.513Z,21.60
2018-04-10T14:09:11.687Z,21.60
2018-04-10T14:12:14.888Z,21.50
2018-04-10T14:15:18.122Z,21.60
2018-04-10T14:18:21.318Z,21.60
2018-04-10T14:21:24.503Z,21.50
2018-04-10T14:24:27.706Z,21.60
2018-04-10T14:27:30.896Z,21.50
2018-04-10T14:30:34.846Z,21.60
2018-04-10T14:33:38.103Z,21.60
2018-04-10T14:36:42.072Z,21.70
2018-04-10T14:39:45.255Z,21.70
2018-04-10T14:42:49.282Z,21.40
2018-04-10T14:45:52.457Z,21.50
2018-04-10T14:48:55.609Z,21.40
2018-04-10T14:51:59.551Z,21.70
2018-04-10T14:55:02.729Z,21.70
2018-04-10T14:58:05.962Z,21.60
2018-04-10T15:01:09.150Z,21.40
2018-04-10T15:04:12.289Z,21.40
2018-04-10T15:07:16.232Z,21.60
2018-04-10T15:10:19.400Z,21.50
2018-04-10T15:13:23.469Z,21.50
2018-04-10T15:16:26.665Z,21.50
2018-04-10T15:19:30.672Z,21.50
2018-04-10T15:22:33.827Z,21.40
2018-04-10T15:25:37.054Z,21.50
2018-04-10T15:28:40.227Z,21.60
2018-04-10T15:31:45.093Z,21.40
2018-04-10T15:34:48.257Z,21.40
2018-04-10T15:37:51.470Z,21.50
2018-04-10T15:40:54.666Z,21.40
2018-04-10T15:43:57.865Z,21.40
2018-04-10T15:47:01.639Z,21.40
2018-04-10T15:50:05.573Z,21.20
2018-04-10T15:53:08.725Z,21.20
2018-04-10T15:56:12.696Z,21.30
2018-04-10T15:59:15.891Z,21.30
2018-04-10T16:02:19.085Z,21.30
2018-04-10T16:05:22.243Z,21.30
2018-04-10T16:08:25.407Z,21.20
2018-04-10T16:11:29.340Z,21.20
2018-04-10T16:14:33.122Z,21.20
2018-04-10T16:17:36.396Z,21.10
2018-04-10T16:20:39.574Z,21.10
2018-04-10T16:23:42.765Z,21.10
2018-04-10T16:26:45.924Z,21.00
2018-04-10T16:29:49.882Z,21.00
2018-04-10T16:32:53.077Z,21.00
2018-04-10T16:35:56.239Z,21.00
2018-04-10T16:38:59.414Z,20.90
2018-04-10T16:42:02.605Z,20.80
2018-04-10T16:45:06.574Z,20.40
2018-04-10T16:48:10.531Z,20.40
2018-04-10T16:51:14.546Z,20.30
2018-04-10T16:54:17.694Z,20.30
2018-04-10T16:57:21.083Z,20.20
2018-04-10T17:00:24.319Z,20.10
2018-04-10T17:03:27.582Z,20.10
2018-04-10T17:06:30.809Z,20.00
2018-04-10T17:09:34.747Z,19.90
2018-04-10T17:12:38.212Z,19.80
2018-04-10T17:15:42.800Z,19.70
2018-04-10T17:18:46.103Z,19.70
2018-04-10T17:21:50.566Z,19.60
2018-04-10T17:25:01.772Z,19.50
2018-04-10T17:28:11.477Z,19.50
2018-04-10T17:31:19.952Z,19.40
2018-04-10T17:34:48.146Z,19.40
2018-04-10T17:37:53.139Z,19.30
2018-04-10T17:41:06.988Z,19.10
2018-04-10T17:44:10.944Z,19.00
2018-04-10T17:47:14.565Z,19.00
2018-04-10T17:50:19.152Z,18.80
2018-04-10T17:53:22.498Z,18.70
2018-04-10T17:56:25.714Z,18.70
2018-04-10T17:59:29.073Z,18.60
2018-04-10T18:02:32.363Z,18.50
2018-04-10T18:05:35.694Z,18.40
2018-04-10T18:08:38.979Z,18.30
2018-04-10T18:11:43.058Z,18.20
2018-04-10T18:14:46.885Z,18.20
2018-04-10T18:17:50.199Z,18.10
2018-04-10T18:20:54.160Z,18.10
2018-04-10T18:23:57.526Z,18.10
2018-04-10T18:27:01.654Z,17.90
2018-04-10T18:30:04.962Z,17.90
2018-04-10T18:36:17.699Z,17.70
2018-04-10T18:39:20.899Z,17.60
2018-04-10T18:42:24.098Z,17.50
2018-04-10T18:45:28.219Z,17.40
2018-04-10T18:48:31.479Z,17.20
2018-04-10T18:51:34.733Z,17.10
2018-04-10T18:54:39.936Z,16.70
2018-04-10T18:57:43.111Z,16.70
2018-04-10T19:00:47.257Z,16.70
2018-04-10T19:03:50.471Z,16.50
2018-04-10T19:06:54.366Z,16.20
2018-04-10T19:09:57.548Z,16.20
2018-04-10T19:13:02.280Z,15.90
2018-04-10T19:16:05.534Z,15.90
2018-04-10T19:19:08.773Z,15.90
2018-04-10T19:22:11.993Z,15.80
2018-04-10T19:25:15.239Z,15.80
2018-04-10T19:28:18.444Z,15.90
2018-04-10T19:31:21.683Z,15.90
2018-04-10T19:34:24.910Z,15.90
2018-04-10T19:37:28.925Z,16.00
2018-04-10T19:40:32.904Z,16.00
2018-04-10T19:43:36.196Z,16.00
2018-04-10T19:46:39.579Z,16.00
2018-04-10T19:49:42.824Z,16.00
2018-04-10T19:52:45.986Z,16.10
2018-04-10T19:55:49.164Z,16.00
2018-04-10T19:58:52.326Z,16.00
2018-04-10T20:01:55.514Z,16.10
2018-04-10T20:04:59.456Z,16.00
2018-04-10T20:08:03.390Z,15.90
2018-04-10T20:11:06.541Z,15.90
2018-04-10T20:14:10.009Z,15.90
2018-04-10T20:17:13.186Z,15.90
2018-04-10T20:20:16.375Z,15.90
2018-04-10T20:23:20.679Z,15.90
2018-04-10T20:26:24.822Z,15.80
2018-04-10T20:29:28.142Z,15.80
2018-04-10T20:32:31.458Z,15.70
2018-04-10T20:35:34.835Z,15.50
2018-04-10T20:38:38.240Z,15.40
2018-04-10T20:41:41.508Z,15.20
2018-04-10T20:44:44.841Z,15.00
2018-04-10T20:47:48.869Z,14.70
2018-04-10T20:50:52.211Z,14.70
2018-04-10T20:53:55.509Z,14.60
2018-04-10T20:56:58.771Z,14.50
2018-04-10T21:00:02.045Z,14.40
2018-04-10T21:03:05.365Z,14.30
2018-04-10T21:09:18.164Z,14.00
2018-04-10T21:12:22.218Z,13.90
2018-04-10T21:15:25.469Z,13.90
2018-04-10T21:18:28.782Z,13.80
2018-04-10T21:21:32.139Z,13.70
2018-04-10T21:24:35.485Z,13.60
2018-04-10T21:27:38.821Z,13.50
2018-04-10T21:30:42.058Z,13.40
2018-04-10T21:33:45.321Z,13.30
2018-04-10T21:36:48.599Z,13.20
2018-04-10T21:39:51.926Z,13.20
2018-04-10T21:43:02.599Z,13.00
2018-04-10T21:46:05.993Z,13.00
2018-04-10T21:49:09.232Z,12.90
2018-04-10T21:52:12.503Z,12.70
2018-04-10T21:55:16.567Z,12.70
2018-04-10T21:58:19.781Z,12.80
2018-04-10T22:01:23.044Z,12.80
2018-04-10T22:04:26.268Z,12.80
2018-04-10T22:07:30.247Z,12.80
2018-04-10T22:10:34.398Z,12.80
2018-04-10T22:13:37.566Z,12.80
2018-04-10T22:16:40.729Z,12.80
2018-04-10T22:19:43.934Z,12.80
2018-04-10T22:22:47.895Z,12.90
2018-04-10T22:25:51.036Z,12.90
2018-04-10T22:28:54.965Z,12.70
2018-04-10T22:31:58.163Z,12.70
2018-04-10T22:35:02.069Z,12.60
2018-04-10T22:38:06.481Z,12.60
2018-04-10T22:41:09.656Z,12.60
2018-04-10T22:44:13.565Z,12.50
2018-04-10T22:47:17.556Z,12.50
2018-04-10T22:50:21.485Z,12.50
2018-04-10T22:53:25.419Z,12.50
2018-04-10T22:56:28.583Z,12.50
2018-04-10T22:59:31.757Z,12.60
2018-04-10T23:02:34.924Z,12.60
2018-04-10T23:05:38.252Z,12.70
2018-04-10T23:08:41.423Z,12.80
2018-04-10T23:11:44.603Z,13.10
2018-04-10T23:14:48.517Z,13.20
2018-04-10T23:17:51.711Z,13.20
2018-04-10T23:20:54.876Z,13.30
2018-04-10T23:23:58.815Z,13.40
2018-04-10T23:27:01.961Z,13.40
2018-04-10T23:30:05.158Z,13.30
2018-04-10T23:33:08.323Z,13.10
2018-04-10T23:36:11.500Z,12.90
2018-04-10T23:39:14.699Z,12.80
2018-04-10T23:42:17.868Z,12.50
2018-04-10T23:45:21.803Z,12.30
2018-04-10T23:48:25.741Z,12.30
2018-04-10T23:51:28.939Z,12.30
2018-04-10T23:54:32.080Z,12.30
2018-04-10T23:57:35.355Z,12.30
